Private Wetterstation Wechselburg
Wetterdaten: Dienstag, 18.06.2013
Datum Zeit Temp. +2m Bodentemp. Temp.+5cm Temp. Wind Windchill X Diff Temp. Feuchte +2m Feuchte +5cm Sonnenschein Luftdruck Regen Wind Richtung Richtung Sonnenschein UV Taupunkt Windchill Windben
18.06.2013 00:00 18,5 C 25,3 C 18,6 C 18,5 C 18,4 C 0,0 C 84 % 81 % 0 % 1012,8 hPa 0,0 l/m 0,0 km/h (0 Bft) O-NO 67 0 min 0,0 UV-I 15,7 C 18,4 C 0,0 km/h (0 Bft)
18.06.2013 00:05 18,3 C 25,3 C 18,6 C 18,4 C 18,4 C 0,1 C 84 % 81 % 0 % 1012,8 hPa 0,0 l/m 0,0 km/h (0 Bft) O 90 0 min 0,0 UV-I 15,5 C 18,4 C 0,0 km/h (0 Bft)
18.06.2013 00:10 18,1 C 25,3 C 18,7 C 18,2 C 18,2 C 0,1 C 84 % 81 % 0 % 1012,8 hPa 0,0 l/m 0,0 km/h (0 Bft) O-NO 67 0 min 0,0 UV-I 15,4 C 18,2 C 0,0 km/h (0 Bft)
18.06.2013 00:15 18,1 C 25,3 C 18,6 C 18,1 C 18,1 C 0,0 C 85 % 81 % 0 % 1012,8 hPa 0,0 l/m 0,0 km/h (0 Bft) S 180 0 min 0,0 UV-I 15,5 C 18,1 C 0,0 km/h (0 Bft)
18.06.2013 00:20 18,0 C 25,3 C 18,5 C 18,0 C 17,9 C 0,0 C 85 % 81 % 0 % 1012,8 hPa 0,0 l/m 0,0 km/h (0 Bft) S 180 0 min 0,0 UV-I 15,4 C 17,9 C 0,0 km/h (0 Bft)
18.06.2013 00:25 17,9 C 25,3 C 18,5 C 17,9 C 17,9 C 0,0 C 85 % 81 % 0 % 1012,8 hPa 0,0 l/m 0,0 km/h (0 Bft) S 180 0 min 0,0 UV-I 15,3 C 17,9 C 0,0 km/h (0 Bft)
18.06.2013 00:30 17,7 C 25,3 C 18,3 C 17,8 C 17,8 C 0,1 C 85 % 81 % 0 % 1012,8 hPa 0,0 l/m 0,0 km/h (0 Bft) S 180 0 min 0,0 UV-I 15,1 C 17,8 C 0,0 km/h (0 Bft)
18.06.2013 00:35 17,6 C 25,3 C 18,3 C 17,7 C 17,7 C 0,1 C 85 % 81 % 0 % 1012,8 hPa 0,0 l/m 0,0 km/h (0 Bft) S 180 0 min 0,0 UV-I 15,0 C 17,7 C 0,0 km/h (0 Bft)
18.06.2013 00:41 17,6 C 25,3 C 18,3 C 17,7 C 17,7 C 0,1 C 85 % 81 % 0 % 1012,8 hPa 0,0 l/m 0,0 km/h (0 Bft) N 0 0 min 0,0 UV-I 15,0 C 17,7 C 0,0 km/h (0 Bft)
18.06.2013 00:57 17,3 C 25,3 C 18,0 C 17,3 C 17,3 C 0,0 C 86 % 81 % 0 % 1012,7 hPa 0,0 l/m 0,0 km/h (0 Bft) W-SW 247 0 min 0,0 UV-I 14,9 C 17,3 C 0,0 km/h (0 Bft)
18.06.2013 00:58 17,3 C 25,3 C 17,9 C 17,2 C 17,1 C 0,0 C 86 % 81 % 0 % 1012,7 hPa 0,0 l/m 0,0 km/h (0 Bft) NW 315 0 min 0,0 UV-I 14,9 C 17,1 C 0,0 km/h (0 Bft)
18.06.2013 01:00 17,3 C 25,3 C 17,9 C 17,2 C 17,1 C 0,0 C 86 % 81 % 0 % 1012,7 hPa 0,0 l/m 0,0 km/h (0 Bft) NW 315 0 min 0,0 UV-I 14,9 C 17,1 C 0,0 km/h (0 Bft)
18.06.2013 01:05 17,2 C 25,3 C 17,9 C 17,2 C 17,1 C 0,0 C 86 % 81 % 0 % 1012,7 hPa 0,0 l/m 0,0 km/h (0 Bft) N-NW 337 0 min 0,0 UV-I 14,8 C 17,1 C 0,0 km/h (0 Bft)
18.06.2013 01:10 17,0 C 25,3 C 17,9 C 17,0 C 17,0 C 0,0 C 86 % 81 % 0 % 1012,7 hPa 0,0 l/m 0,0 km/h (0 Bft) NW 315 0 min 0,0 UV-I 14,6 C 17,0 C 0,0 km/h (0 Bft)
18.06.2013 01:15 17,0 C 25,3 C 17,9 C 17,0 C 17,0 C 0,0 C 86 % 81 % 0 % 1012,6 hPa 0,0 l/m 0,0 km/h (0 Bft) NW 315 0 min 0,0 UV-I 14,6 C 17,0 C 0,0 km/h (0 Bft)
18.06.2013 01:20 16,9 C 25,3 C 17,9 C 17,0 C 17,0 C 0,1 C 86 % 81 % 0 % 1012,6 hPa 0,0 l/m 0,0 km/h (0 Bft) O-NO 67 0 min 0,0 UV-I 14,5 C 17,0 C 0,0 km/h (0 Bft)
18.06.2013 01:25 16,9 C 25,3 C 17,9 C 17,0 C 17,0 C 0,1 C 86 % 81 % 0 % 1012,6 hPa 0,0 l/m 0,0 km/h (0 Bft) O-NO 67 0 min 0,0 UV-I 14,5 C 17,0 C 0,0 km/h (0 Bft)
18.06.2013 01:30 16,8 C 25,3 C 17,6 C 17,0 C 17,0 C 0,2 C 87 % 81 % 0 % 1012,6 hPa 0,0 l/m 0,0 km/h (0 Bft) O-NO 67 0 min 0,0 UV-I 14,6 C 17,0 C 0,0 km/h (0 Bft)
18.06.2013 01:35 16,9 C 25,2 C 17,7 C 17,0 C 17,0 C 0,1 C 87 % 81 % 0 % 1012,4 hPa 0,0 l/m 0,0 km/h (0 Bft) NO 45 0 min 0,0 UV-I 14,7 C 17,0 C 0,0 km/h (0 Bft)
18.06.2013 01:40 16,8 C 25,2 C 17,6 C 17,0 C 17,0 C 0,2 C 87 % 81 % 0 % 1012,4 hPa 0,0 l/m 0,0 km/h (0 Bft) SW 225 0 min 0,0 UV-I 14,6 C 17,0 C 0,0 km/h (0 Bft)
18.06.2013 01:45 16,7 C 25,2 C 17,6 C 16,9 C 16,9 C 0,2 C 87 % 81 % 0 % 1012,4 hPa 0,0 l/m 0,0 km/h (0 Bft) W-SW 247 0 min 0,0 UV-I 14,5 C 16,9 C 0,0 km/h (0 Bft)
18.06.2013 01:50 16,6 C 25,2 C 17,4 C 16,6 C 16,6 C 0,0 C 87 % 81 % 0 % 1012,4 hPa 0,0 l/m 0,0 km/h (0 Bft) SW 225 0 min 0,0 UV-I 14,4 C 16,6 C 0,0 km/h (0 Bft)
18.06.2013 01:55 16,4 C 25,2 C 17,3 C 16,5 C 16,5 C 0,1 C 87 % 81 % 0 % 1012,8 hPa 0,0 l/m 0,0 km/h (0 Bft) O-SO 112 0 min 0,0 UV-I 14,2 C 16,5 C 0,0 km/h (0 Bft)
18.06.2013 02:00 16,4 C 25,2 C 17,2 C 16,5 C 16,5 C 0,1 C 87 % 81 % 0 % 1012,8 hPa 0,0 l/m 0,0 km/h (0 Bft) N-NO 22 0 min 0,0 UV-I 14,2 C 16,5 C 0,0 km/h (0 Bft)
18.06.2013 02:05 16,3 C 25,2 C 17,3 C 16,4 C 16,4 C 0,1 C 87 % 81 % 0 % 1012,8 hPa 0,0 l/m 0,0 km/h (0 Bft) W 270 0 min 0,0 UV-I 14,1 C 16,4 C 0,0 km/h (0 Bft)
18.06.2013 02:10 16,2 C 25,2 C 17,3 C 16,3 C 16,3 C 0,1 C 87 % 82 % 0 % 1012,8 hPa 0,0 l/m 0,0 km/h (0 Bft) W-SW 247 0 min 0,0 UV-I 14,0 C 16,3 C 0,0 km/h (0 Bft)
18.06.2013 02:15 16,3 C 25,2 C 17,2 C 16,3 C 16,3 C 0,0 C 87 % 82 % 0 % 1012,8 hPa 0,0 l/m 0,0 km/h (0 Bft) W-SW 247 0 min 0,0 UV-I 14,1 C 16,3 C 0,0 km/h (0 Bft)
18.06.2013 02:20 16,1 C 25,2 C 17,2 C 16,2 C 16,2 C 0,1 C 88 % 82 % 0 % 1012,8 hPa 0,0 l/m 0,0 km/h (0 Bft) S-SW 202 0 min 0,0 UV-I 14,1 C 16,2 C 0,0 km/h (0 Bft)
18.06.2013 02:25 16,0 C 25,2 C 17,1 C 16,1 C 16,1 C 0,1 C 88 % 82 % 0 % 1012,8 hPa 0,0 l/m 0,0 km/h (0 Bft) SW 225 0 min 0,0 UV-I 14,0 C 16,1 C 0,0 km/h (0 Bft)
18.06.2013 02:30 16,0 C 25,1 C 17,0 C 16,1 C 16,1 C 0,1 C 88 % 82 % 0 % 1012,8 hPa 0,0 l/m 0,0 km/h (0 Bft) O 90 0 min 0,0 UV-I 14,0 C 16,1 C 0,0 km/h (0 Bft)
18.06.2013 02:35 16,0 C 25,2 C 17,1 C 16,1 C 16,1 C 0,1 C 88 % 82 % 0 % 1012,6 hPa 0,0 l/m 0,0 km/h (0 Bft) O-NO 67 0 min 0,0 UV-I 14,0 C 16,1 C 0,0 km/h (0 Bft)
18.06.2013 02:40 16,1 C 25,2 C 17,1 C 16,3 C 16,3 C 0,2 C 88 % 82 % 0 % 1012,6 hPa 0,0 l/m 0,0 km/h (0 Bft) O-NO 67 0 min 0,1 UV-I 14,1 C 16,3 C 0,0 km/h (0 Bft)
18.06.2013 02:45 16,0 C 25,2 C 17,1 C 16,3 C 16,3 C 0,3 C 88 % 82 % 0 % 1012,6 hPa 0,0 l/m 0,0 km/h (0 Bft) O-NO 67 0 min 0,1 UV-I 14,0 C 16,3 C 0,0 km/h (0 Bft)
18.06.2013 02:50 15,9 C 25,2 C 16,9 C 16,1 C 16,1 C 0,2 C 88 % 82 % 0 % 1012,6 hPa 0,0 l/m 0,0 km/h (0 Bft) W-SW 247 0 min 0,0 UV-I 13,9 C 16,1 C 0,0 km/h (0 Bft)
18.06.2013 02:55 15,9 C 25,2 C 16,8 C 15,9 C 15,9 C 0,0 C 88 % 82 % 0 % 1012,5 hPa 0,0 l/m 0,0 km/h (0 Bft) S-SW 202 0 min 0,0 UV-I 13,9 C 15,9 C 0,0 km/h (0 Bft)
18.06.2013 03:00 15,7 C 25,2 C 16,7 C 15,8 C 15,8 C 0,1 C 88 % 82 % 0 % 1012,5 hPa 0,0 l/m 0,0 km/h (0 Bft) SW 225 0 min 0,0 UV-I 13,7 C 15,8 C 0,0 km/h (0 Bft)
18.06.2013 03:05 15,6 C 25,2 C 16,7 C 15,8 C 15,8 C 0,2 C 88 % 82 % 0 % 1012,5 hPa 0,0 l/m 0,0 km/h (0 Bft) S-SW 202 0 min 0,0 UV-I 13,6 C 15,8 C 2,1 km/h (1 Bft)
18.06.2013 03:10 15,7 C 25,2 C 16,7 C 15,8 C 15,8 C 0,1 C 88 % 82 % 0 % 1012,5 hPa 0,0 l/m 0,0 km/h (0 Bft) S 180 0 min 0,0 UV-I 13,7 C 15,8 C 0,0 km/h (0 Bft)
18.06.2013 03:15 15,6 C 25,2 C 16,7 C 15,8 C 15,8 C 0,2 C 88 % 82 % 0 % 1012,6 hPa 0,0 l/m 0,0 km/h (0 Bft) S-SW 202 0 min 0,0 UV-I 13,6 C 15,8 C 0,0 km/h (0 Bft)
18.06.2013 03:20 15,5 C 25,2 C 16,7 C 15,8 C 15,8 C 0,3 C 88 % 82 % 0 % 1012,6 hPa 0,0 l/m 0,0 km/h (0 Bft) S-SW 202 0 min 0,0 UV-I 13,5 C 15,8 C 0,0 km/h (0 Bft)
18.06.2013 03:25 15,5 C 25,2 C 16,7 C 15,8 C 15,8 C 0,3 C 88 % 82 % 0 % 1012,6 hPa 0,0 l/m 0,0 km/h (0 Bft) S-SW 202 0 min 0,0 UV-I 13,5 C 15,8 C 0,0 km/h (0 Bft)
18.06.2013 03:30 15,5 C 25,1 C 16,7 C 15,8 C 15,8 C 0,3 C 89 % 82 % 0 % 1012,6 hPa 0,0 l/m 0,0 km/h (0 Bft) S-SW 202 0 min 0,0 UV-I 13,7 C 15,8 C 0,0 km/h (0 Bft)
18.06.2013 03:35 15,4 C 25,1 C 16,6 C 15,8 C 15,8 C 0,4 C 89 % 82 % 0 % 1012,9 hPa 0,0 l/m 0,0 km/h (0 Bft) W-SW 247 0 min 0,0 UV-I 13,6 C 15,8 C 0,0 km/h (0 Bft)
18.06.2013 03:40 15,3 C 25,1 C 16,6 C 15,8 C 15,8 C 0,5 C 89 % 82 % 0 % 1012,9 hPa 0,0 l/m 0,0 km/h (0 Bft) NW 315 0 min 0,0 UV-I 13,5 C 15,8 C 0,0 km/h (0 Bft)
18.06.2013 03:45 15,3 C 25,1 C 16,7 C 15,8 C 15,8 C 0,5 C 89 % 82 % 0 % 1012,9 hPa 0,0 l/m 0,0 km/h (0 Bft) O-NO 67 0 min 0,0 UV-I 13,5 C 15,8 C 0,0 km/h (0 Bft)
18.06.2013 03:50 15,4 C 25,1 C 16,5 C 15,8 C 15,8 C 0,4 C 89 % 82 % 0 % 1012,9 hPa 0,0 l/m 0,0 km/h (0 Bft) O 90 0 min 0,0 UV-I 13,6 C 15,8 C 0,0 km/h (0 Bft)
18.06.2013 03:55 15,5 C 25,1 C 16,5 C 15,8 C 15,8 C 0,3 C 89 % 82 % 0 % 1012,8 hPa 0,0 l/m 0,0 km/h (0 Bft) O 90 0 min 0,0 UV-I 13,7 C 15,8 C 0,0 km/h (0 Bft)
18.06.2013 04:00 15,5 C 25,1 C 16,5 C 16,0 C 16,0 C 0,5 C 89 % 82 % 0 % 1012,8 hPa 0,0 l/m 0,0 km/h (0 Bft) O-NO 67 0 min 0,1 UV-I 13,7 C 16,0 C 0,0 km/h (0 Bft)
18.06.2013 04:05 15,5 C 25,1 C 16,5 C 16,0 C 16,0 C 0,5 C 89 % 82 % 0 % 1012,8 hPa 0,0 l/m 0,0 km/h (0 Bft) O 90 0 min 0,1 UV-I 13,7 C 16,0 C 0,0 km/h (0 Bft)
18.06.2013 04:10 15,5 C 24,9 C 16,7 C 16,0 C 16,0 C 0,5 C 90 % 83 % 0 % 1012,8 hPa 0,0 l/m 0,0 km/h (0 Bft) O 90 0 min 0,1 UV-I 13,9 C 16,0 C 0,0 km/h (0 Bft)
18.06.2013 04:15 15,5 C 24,9 C 16,7 C 16,1 C 16,1 C 0,6 C 90 % 83 % 0 % 1013,0 hPa 0,0 l/m 0,0 km/h (0 Bft) O 90 0 min 0,1 UV-I 13,9 C 16,1 C 0,0 km/h (0 Bft)
18.06.2013 04:20 15,6 C 24,9 C 16,7 C 16,1 C 16,1 C 0,5 C 90 % 83 % 0 % 1013,0 hPa 0,0 l/m 0,0 km/h (0 Bft) O-SO 112 0 min 0,1 UV-I 14,0 C 16,1 C 0,0 km/h (0 Bft)
18.06.2013 04:25 15,6 C 24,9 C 16,5 C 15,9 C 15,9 C 0,3 C 90 % 83 % 0 % 1013,0 hPa 0,0 l/m 0,0 km/h (0 Bft) W 270 0 min 0,1 UV-I 14,0 C 15,9 C 0,0 km/h (0 Bft)
18.06.2013 04:30 15,5 C 24,9 C 16,3 C 15,6 C 15,6 C 0,1 C 90 % 83 % 0 % 1013,0 hPa 0,0 l/m 0,0 km/h (0 Bft) W-NW 292 0 min 0,0 UV-I 13,9 C 15,6 C 0,0 km/h (0 Bft)
18.06.2013 04:35 15,2 C 24,9 C 16,3 C 15,4 C 15,4 C 0,2 C 89 % 82 % 0 % 1012,9 hPa 0,0 l/m 0,0 km/h (0 Bft) NW 315 0 min 0,0 UV-I 13,4 C 15,4 C 0,0 km/h (0 Bft)
18.06.2013 04:40 15,2 C 24,9 C 16,2 C 15,3 C 15,3 C 0,1 C 89 % 82 % 0 % 1012,9 hPa 0,0 l/m 0,0 km/h (0 Bft) NW 315 0 min 0,0 UV-I 13,4 C 15,3 C 0,0 km/h (0 Bft)
18.06.2013 04:45 15,0 C 24,9 C 16,1 C 15,2 C 15,2 C 0,2 C 89 % 82 % 0 % 1012,9 hPa 0,0 l/m 0,0 km/h (0 Bft) NW 315 0 min 0,0 UV-I 13,2 C 15,2 C 0,0 km/h (0 Bft)
18.06.2013 04:50 15,0 C 24,9 C 16,1 C 15,2 C 15,2 C 0,2 C 89 % 83 % 0 % 1012,9 hPa 0,0 l/m 0,0 km/h (0 Bft) W 270 0 min 0,0 UV-I 13,2 C 15,2 C 0,0 km/h (0 Bft)
18.06.2013 04:55 14,9 C 24,9 C 16,1 C 15,2 C 15,2 C 0,3 C 89 % 83 % 0 % 1013,0 hPa 0,0 l/m 0,0 km/h (0 Bft) S-SO 157 0 min 0,0 UV-I 13,1 C 15,2 C 0,0 km/h (0 Bft)
18.06.2013 05:00 14,8 C 24,9 C 16,2 C 15,1 C 15,1 C 0,3 C 89 % 83 % 0 % 1013,0 hPa 0,0 l/m 0,0 km/h (0 Bft) W-SW 247 0 min 0,0 UV-I 13,0 C 15,1 C 0,0 km/h (0 Bft)
18.06.2013 05:05 14,9 C 24,9 C 16,0 C 15,1 C 15,1 C 0,2 C 90 % 83 % 0 % 1013,0 hPa 0,0 l/m 0,0 km/h (0 Bft) NW 315 0 min 0,0 UV-I 13,3 C 15,1 C 0,0 km/h (0 Bft)
18.06.2013 05:10 14,8 C 24,8 C 16,0 C 15,2 C 15,2 C 0,4 C 90 % 83 % 11 % 1013,0 hPa 0,0 l/m 0,0 km/h (0 Bft) W-SW 247 5 min 0,1 UV-I 13,2 C 15,2 C 0,0 km/h (0 Bft)
18.06.2013 05:15 14,8 C 24,8 C 16,0 C 15,2 C 15,2 C 0,4 C 90 % 83 % 11 % 1013,2 hPa 0,0 l/m 0,0 km/h (0 Bft) N-NW 337 5 min 0,1 UV-I 13,2 C 15,2 C 0,0 km/h (0 Bft)
18.06.2013 05:20 14,8 C 24,8 C 16,1 C 15,2 C 15,2 C 0,4 C 90 % 83 % 11 % 1013,2 hPa 0,0 l/m 0,0 km/h (0 Bft) N-NO 22 0 min 0,1 UV-I 13,2 C 15,2 C 0,0 km/h (0 Bft)
18.06.2013 05:25 14,9 C 24,8 C 16,0 C 15,2 C 15,2 C 0,3 C 90 % 83 % 8 % 1013,2 hPa 0,0 l/m 0,0 km/h (0 Bft) O-NO 67 0 min 0,1 UV-I 13,3 C 15,2 C 0,0 km/h (0 Bft)
18.06.2013 05:30 14,8 C 24,9 C 16,0 C 15,3 C 15,3 C 0,5 C 90 % 83 % 13 % 1013,2 hPa 0,0 l/m 0,0 km/h (0 Bft) O 90 0 min 0,2 UV-I 13,2 C 15,3 C 0,0 km/h (0 Bft)
18.06.2013 05:35 14,9 C 24,9 C 16,1 C 15,4 C 15,4 C 0,5 C 90 % 83 % 13 % 1013,3 hPa 0,0 l/m 0,0 km/h (0 Bft) O 90 0 min 0,2 UV-I 13,3 C 15,4 C 0,0 km/h (0 Bft)
18.06.2013 05:40 14,8 C 24,9 C 16,1 C 15,5 C 15,5 C 0,7 C 90 % 83 % 18 % 1013,3 hPa 0,0 l/m 0,0 km/h (0 Bft) W-SW 247 0 min 0,2 UV-I 13,2 C 15,5 C 0,0 km/h (0 Bft)
18.06.2013 05:45 14,8 C 24,8 C 16,1 C 15,6 C 15,6 C 0,8 C 90 % 83 % 21 % 1013,3 hPa 0,0 l/m 0,0 km/h (0 Bft) SW 225 0 min 0,2 UV-I 13,2 C 15,6 C 0,0 km/h (0 Bft)
18.06.2013 05:50 14,9 C 24,8 C 16,2 C 15,6 C 15,6 C 0,7 C 90 % 83 % 18 % 1013,3 hPa 0,0 l/m 0,0 km/h (0 Bft) O-SO 112 0 min 0,2 UV-I 13,3 C 15,6 C 0,0 km/h (0 Bft)
18.06.2013 05:55 14,9 C 24,8 C 16,1 C 15,6 C 15,6 C 0,7 C 90 % 83 % 18 % 1013,4 hPa 0,0 l/m 0,0 km/h (0 Bft) N-NO 22 0 min 0,2 UV-I 13,3 C 15,6 C 0,0 km/h (0 Bft)
18.06.2013 06:00 15,1 C 24,8 C 16,3 C 15,8 C 15,8 C 0,7 C 90 % 83 % 18 % 1013,4 hPa 0,0 l/m 0,0 km/h (0 Bft) O-NO 67 0 min 0,3 UV-I 13,5 C 15,8 C 0,0 km/h (0 Bft)
18.06.2013 06:05 15,0 C 24,8 C 16,4 C 16,0 C 16,0 C 1,0 C 90 % 83 % 26 % 1013,4 hPa 0,0 l/m 0,0 km/h (0 Bft) O-NO 67 0 min 0,3 UV-I 13,4 C 16,0 C 0,0 km/h (0 Bft)
18.06.2013 06:10 15,2 C 24,8 C 16,5 C 16,1 C 16,1 C 0,9 C 91 % 83 % 24 % 1013,4 hPa 0,0 l/m 0,0 km/h (0 Bft) W-SW 247 0 min 0,3 UV-I 13,7 C 16,1 C 0,0 km/h (0 Bft)
18.06.2013 06:15 15,3 C 24,8 C 16,6 C 16,2 C 16,2 C 0,9 C 91 % 83 % 24 % 1013,6 hPa 0,0 l/m 0,0 km/h (0 Bft) W-SW 247 0 min 0,3 UV-I 13,8 C 16,2 C 0,0 km/h (0 Bft)
18.06.2013 06:20 15,2 C 24,7 C 16,6 C 16,2 C 16,2 C 1,0 C 91 % 83 % 26 % 1013,6 hPa 0,0 l/m 0,0 km/h (0 Bft) W-SW 247 0 min 0,2 UV-I 13,7 C 16,2 C 0,0 km/h (0 Bft)
18.06.2013 06:25 15,2 C 24,7 C 16,6 C 16,3 C 16,3 C 1,1 C 91 % 82 % 29 % 1013,6 hPa 0,0 l/m 0,0 km/h (0 Bft) W-SW 247 0 min 0,2 UV-I 13,7 C 16,3 C 0,0 km/h (0 Bft)
18.06.2013 06:30 15,3 C 24,7 C 16,8 C 16,3 C 16,3 C 1,0 C 91 % 82 % 26 % 1013,6 hPa 0,0 l/m 0,0 km/h (0 Bft) S 180 0 min 0,2 UV-I 13,8 C 16,3 C 0,0 km/h (0 Bft)
18.06.2013 06:35 15,3 C 24,7 C 16,9 C 16,5 C 16,5 C 1,2 C 91 % 82 % 32 % 1014,0 hPa 0,0 l/m 0,0 km/h (0 Bft) W 270 0 min 0,2 UV-I 13,8 C 16,5 C 0,0 km/h (0 Bft)
18.06.2013 06:41 15,5 C 24,7 C 17,1 C 16,7 C 16,7 C 1,2 C 91 % 82 % 32 % 1014,0 hPa 0,0 l/m 0,0 km/h (0 Bft) N 0 0 min 0,1 UV-I 14,0 C 16,7 C 0,0 km/h (0 Bft)
18.06.2013 07:00 16,0 C 24,7 C 18,1 C 19,6 C 19,6 C 3,6 C 92 % 82 % 95 % 1013,9 hPa 0,0 l/m 0,0 km/h (0 Bft) O-NO 67 19 min 0,0 UV-I 14,7 C 19,6 C 0,0 km/h (0 Bft)
18.06.2013 07:05 16,3 C 24,6 C 18,4 C 21,0 C 21,0 C 4,7 C 92 % 82 % 100 % 1013,9 hPa 0,0 l/m 0,0 km/h (0 Bft) N-NO 22 5 min 0,0 UV-I 15,0 C 21,0 C 0,0 km/h (0 Bft)
18.06.2013 07:10 16,7 C 24,7 C 18,7 C 21,8 C 21,8 C 5,1 C 92 % 82 % 100 % 1013,9 hPa 0,0 l/m 0,3 km/h (0 Bft) N-NW 337 5 min 0,0 UV-I 15,4 C 21,8 C 2,7 km/h (1 Bft)
18.06.2013 07:15 16,9 C 24,6 C 18,8 C 22,6 C 22,6 C 5,7 C 92 % 82 % 100 % 1013,6 hPa 0,0 l/m 0,6 km/h (0 Bft) W-SW 247 5 min 0,0 UV-I 15,6 C 22,6 C 2,9 km/h (1 Bft)
18.06.2013 07:20 17,2 C 24,6 C 18,9 C 23,7 C 23,7 C 6,5 C 92 % 81 % 100 % 1013,6 hPa 0,0 l/m 0,6 km/h (0 Bft) SW 225 5 min 0,0 UV-I 15,9 C 23,7 C 0,0 km/h (0 Bft)
18.06.2013 07:25 17,4 C 24,6 C 19,0 C 24,5 C 24,5 C 7,1 C 92 % 81 % 100 % 1013,6 hPa 0,0 l/m 0,5 km/h (0 Bft) W 270 5 min 0,0 UV-I 16,1 C 24,5 C 0,0 km/h (0 Bft)
18.06.2013 07:30 17,7 C 24,5 C 19,2 C 25,4 C 25,4 C 7,7 C 92 % 81 % 100 % 1013,6 hPa 0,0 l/m 0,2 km/h (0 Bft) W-SW 247 5 min 0,0 UV-I 16,4 C 25,4 C 1,6 km/h (1 Bft)
18.06.2013 07:35 18,0 C 24,4 C 19,3 C 26,0 C 26,0 C 8,0 C 93 % 81 % 100 % 1013,8 hPa 0,0 l/m 0,2 km/h (0 Bft) S-SW 202 5 min 0,0 UV-I 16,8 C 26,0 C 0,0 km/h (0 Bft)
18.06.2013 07:40 18,4 C 24,4 C 19,5 C 26,8 C 26,8 C 8,4 C 93 % 81 % 100 % 1013,8 hPa 0,0 l/m 0,3 km/h (0 Bft) W-NW 292 5 min 0,0 UV-I 17,2 C 26,8 C 0,0 km/h (0 Bft)
18.06.2013 07:45 18,7 C 24,4 C 19,6 C 27,2 C 27,2 C 8,5 C 92 % 81 % 100 % 1013,8 hPa 0,0 l/m 0,2 km/h (0 Bft) W 270 5 min 0,0 UV-I 17,4 C 27,2 C 0,0 km/h (0 Bft)
18.06.2013 07:50 19,1 C 24,3 C 19,6 C 27,8 C 27,8 C 8,7 C 92 % 81 % 100 % 1013,8 hPa 0,0 l/m 0,2 km/h (0 Bft) SW 225 5 min 0,0 UV-I 17,8 C 27,8 C 0,0 km/h (0 Bft)
18.06.2013 07:55 19,3 C 24,3 C 19,6 C 28,2 C 28,2 C 8,9 C 91 % 81 % 100 % 1013,8 hPa 0,0 l/m 0,5 km/h (0 Bft) SW 225 5 min 0,0 UV-I 17,8 C 28,2 C 1,9 km/h (1 Bft)
18.06.2013 08:00 19,7 C 24,3 C 19,9 C 28,7 C 28,7 C 9,0 C 91 % 80 % 100 % 1013,8 hPa 0,0 l/m 0,6 km/h (0 Bft) S 180 5 min 0,0 UV-I 18,2 C 28,7 C 2,3 km/h (1 Bft)
18.06.2013 08:05 20,0 C 24,3 C 19,8 C 28,9 C 28,9 C 8,9 C 90 % 80 % 100 % 1013,8 hPa 0,0 l/m 0,6 km/h (0 Bft) W-SW 247 5 min 0,0 UV-I 18,3 C 28,9 C 2,1 km/h (1 Bft)
18.06.2013 08:10 20,3 C 24,3 C 20,1 C 29,5 C 29,5 C 9,2 C 89 % 80 % 100 % 1013,8 hPa 0,0 l/m 0,5 km/h (0 Bft) S-SO 157 5 min 0,0 UV-I 18,4 C 29,5 C 3,4 km/h (1 Bft)
18.06.2013 08:15 20,7 C 24,3 C 20,2 C 30,0 C 30,0 C 9,3 C 88 % 80 % 100 % 1013,8 hPa 0,0 l/m 0,2 km/h (0 Bft) SW 225 5 min 0,0 UV-I 18,6 C 30,0 C 0,0 km/h (0 Bft)
18.06.2013 08:20 21,0 C 24,3 C 20,3 C 30,3 C 30,3 C 9,3 C 86 % 80 % 100 % 1013,8 hPa 0,0 l/m 0,5 km/h (0 Bft) N-NW 337 5 min 0,0 UV-I 18,6 C 30,3 C 0,0 km/h (0 Bft)
18.06.2013 08:25 21,3 C 24,3 C 20,7 C 30,6 C 30,6 C 9,3 C 85 % 80 % 100 % 1013,8 hPa 0,0 l/m 0,5 km/h (0 Bft) W 270 5 min 0,0 UV-I 18,7 C 30,6 C 0,0 km/h (0 Bft)
18.06.2013 08:30 21,8 C 24,2 C 20,9 C 31,6 C 31,6 C 9,8 C 84 % 80 % 100 % 1013,8 hPa 0,0 l/m 0,0 km/h (0 Bft) W-SW 247 5 min 0,0 UV-I 19,0 C 31,6 C 0,0 km/h (0 Bft)
18.06.2013 08:35 22,2 C 24,3 C 20,9 C 31,9 C 31,9 C 9,7 C 83 % 80 % 100 % 1013,7 hPa 0,0 l/m 0,0 km/h (0 Bft) NW 315 5 min 0,0 UV-I 19,2 C 31,9 C 0,0 km/h (0 Bft)
18.06.2013 08:40 22,6 C 24,2 C 21,0 C 32,5 C 32,5 C 9,9 C 82 % 80 % 100 % 1013,7 hPa 0,0 l/m 0,3 km/h (0 Bft) W-SW 247 5 min 0,0 UV-I 19,4 C 32,5 C 4,0 km/h (1 Bft)
18.06.2013 08:45 22,9 C 24,2 C 21,0 C 32,2 C 32,2 C 9,3 C 82 % 80 % 100 % 1013,7 hPa 0,0 l/m 0,6 km/h (0 Bft) W 270 5 min 0,0 UV-I 19,7 C 32,2 C 1,6 km/h (1 Bft)
18.06.2013 08:50 23,5 C 24,2 C 21,1 C 32,3 C 32,3 C 8,8 C 80 % 80 % 100 % 1013,7 hPa 0,0 l/m 1,1 km/h (1 Bft) W 270 5 min 0,0 UV-I 19,8 C 32,3 C 1,6 km/h (1 Bft)
18.06.2013 08:55 23,9 C 24,2 C 21,2 C 32,6 C 32,6 C 8,7 C 79 % 80 % 100 % 1013,7 hPa 0,0 l/m 1,0 km/h (0 Bft) W-SW 247 5 min 0,0 UV-I 20,0 C 32,6 C 0,0 km/h (0 Bft)
18.06.2013 09:00 24,2 C 24,2 C 21,2 C 32,8 C 32,8 C 8,6 C 78 % 79 % 100 % 1013,7 hPa 0,0 l/m 1,0 km/h (0 Bft) W 270 5 min 0,0 UV-I 20,1 C 32,8 C 1,8 km/h (1 Bft)
18.06.2013 09:05 24,6 C 24,2 C 21,3 C 33,1 C 33,1 C 8,5 C 77 % 79 % 100 % 1013,7 hPa 0,0 l/m 1,0 km/h (0 Bft) S 180 5 min 0,0 UV-I 20,3 C 33,1 C 2,1 km/h (1 Bft)
18.06.2013 09:10 24,9 C 24,2 C 21,4 C 33,4 C 33,4 C 8,5 C 76 % 79 % 100 % 1013,7 hPa 0,0 l/m 0,8 km/h (0 Bft) SW 225 5 min 0,0 UV-I 20,4 C 33,4 C 0,0 km/h (0 Bft)
18.06.2013 09:15 25,1 C 24,2 C 21,6 C 33,8 C 33,8 C 8,7 C 76 % 79 % 100 % 1014,2 hPa 0,0 l/m 0,5 km/h (0 Bft) W-SW 247 5 min 0,0 UV-I 20,6 C 33,8 C 0,0 km/h (0 Bft)
18.06.2013 09:20 25,6 C 24,2 C 21,9 C 34,3 C 34,3 C 8,7 C 74 % 79 % 100 % 1014,2 hPa 0,0 l/m 0,3 km/h (0 Bft) W-SW 247 5 min 0,0 UV-I 20,6 C 34,3 C 0,0 km/h (0 Bft)
18.06.2013 09:25 25,8 C 24,2 C 21,9 C 34,5 C 34,5 C 8,7 C 73 % 79 % 100 % 1014,2 hPa 0,0 l/m 0,5 km/h (0 Bft) S-SO 157 5 min 0,0 UV-I 20,6 C 34,5 C 2,7 km/h (1 Bft)
18.06.2013 09:30 26,3 C 24,2 C 22,1 C 34,7 C 34,7 C 8,4 C 72 % 79 % 100 % 1014,2 hPa 0,0 l/m 0,3 km/h (0 Bft) SW 225 5 min 0,0 UV-I 20,8 C 34,7 C 2,3 km/h (1 Bft)
18.06.2013 09:35 26,3 C 24,2 C 22,0 C 34,7 C 34,7 C 8,4 C 72 % 79 % 100 % 1014,0 hPa 0,0 l/m 0,6 km/h (0 Bft) W-NW 292 5 min 0,0 UV-I 20,8 C 34,7 C 0,0 km/h (0 Bft)
18.06.2013 09:40 26,7 C 24,2 C 22,3 C 34,6 C 34,6 C 7,9 C 71 % 79 % 100 % 1014,0 hPa 0,0 l/m 0,6 km/h (0 Bft) W-SW 247 5 min 0,0 UV-I 21,0 C 34,6 C 0,0 km/h (0 Bft)
18.06.2013 09:45 26,7 C 24,2 C 22,5 C 34,5 C 34,5 C 7,8 C 71 % 79 % 100 % 1014,0 hPa 0,0 l/m 0,5 km/h (0 Bft) S 180 5 min 0,0 UV-I 21,0 C 34,5 C 0,0 km/h (0 Bft)
18.06.2013 09:50 26,8 C 24,2 C 22,5 C 34,7 C 34,7 C 7,9 C 71 % 79 % 100 % 1014,0 hPa 0,0 l/m 0,5 km/h (0 Bft) S-SO 157 5 min 0,0 UV-I 21,1 C 34,7 C 7,4 km/h (2 Bft)
18.06.2013 09:55 26,7 C 24,2 C 22,5 C 35,0 C 35,0 C 8,3 C 71 % 79 % 100 % 1013,9 hPa 0,0 l/m 0,5 km/h (0 Bft) SO 135 5 min 0,0 UV-I 21,0 C 35,0 C 0,0 km/h (0 Bft)
18.06.2013 10:00 26,7 C 24,2 C 22,8 C 35,3 C 35,3 C 8,6 C 70 % 79 % 100 % 1013,9 hPa 0,0 l/m 0,3 km/h (0 Bft) W-SW 247 5 min 0,0 UV-I 20,8 C 35,3 C 2,3 km/h (1 Bft)
18.06.2013 10:05 26,8 C 24,3 C 22,7 C 35,2 C 35,2 C 8,4 C 70 % 79 % 100 % 1013,9 hPa 0,0 l/m 1,3 km/h (1 Bft) W 270 5 min 0,0 UV-I 20,9 C 35,2 C 2,3 km/h (1 Bft)
18.06.2013 10:10 26,8 C 24,3 C 22,8 C 34,8 C 34,8 C 8,0 C 71 % 79 % 100 % 1013,9 hPa 0,0 l/m 1,6 km/h (1 Bft) O-SO 112 5 min 0,0 UV-I 21,1 C 34,8 C 3,1 km/h (1 Bft)
18.06.2013 10:15 26,9 C 24,3 C 22,9 C 34,7 C 34,7 C 7,8 C 70 % 78 % 100 % 1014,1 hPa 0,0 l/m 1,9 km/h (1 Bft) SW 225 5 min 0,0 UV-I 21,0 C 34,7 C 5,6 km/h (1 Bft)
18.06.2013 10:20 26,7 C 24,2 C 22,9 C 33,7 C 33,7 C 7,0 C 68 % 78 % 100 % 1014,1 hPa 0,0 l/m 3,7 km/h (1 Bft) S-SW 202 5 min 0,0 UV-I 20,3 C 33,7 C 8,4 km/h (2 Bft)
18.06.2013 10:25 26,7 C 24,2 C 23,0 C 33,4 C 33,4 C 6,7 C 68 % 78 % 100 % 1014,1 hPa 0,0 l/m 4,0 km/h (1 Bft) SO 135 5 min 0,0 UV-I 20,3 C 33,4 C 7,7 km/h (2 Bft)
18.06.2013 10:30 26,7 C 24,2 C 23,1 C 32,9 C 32,9 C 6,2 C 69 % 78 % 100 % 1014,1 hPa 0,0 l/m 3,7 km/h (1 Bft) W 270 5 min 0,0 UV-I 20,5 C 32,9 C 3,1 km/h (1 Bft)
18.06.2013 10:35 26,6 C 24,2 C 23,1 C 33,0 C 33,0 C 6,4 C 69 % 78 % 100 % 1014,1 hPa 0,0 l/m 3,4 km/h (1 Bft) W-SW 247 5 min 0,0 UV-I 20,4 C 33,0 C 3,1 km/h (1 Bft)
18.06.2013 10:40 26,8 C 24,2 C 23,2 C 33,2 C 33,2 C 6,4 C 68 % 78 % 100 % 1014,1 hPa 0,0 l/m 3,1 km/h (1 Bft) SW 225 5 min 0,0 UV-I 20,4 C 33,2 C 4,0 km/h (1 Bft)
18.06.2013 10:45 26,8 C 24,3 C 23,2 C 33,2 C 33,2 C 6,4 C 69 % 78 % 100 % 1014,1 hPa 0,0 l/m 3,4 km/h (1 Bft) O-NO 67 5 min 0,0 UV-I 20,6 C 33,2 C 5,3 km/h (1 Bft)
18.06.2013 10:50 26,7 C 24,3 C 23,2 C 33,2 C 33,2 C 6,5 C 69 % 78 % 100 % 1014,1 hPa 0,0 l/m 3,7 km/h (1 Bft) SW 225 5 min 0,0 UV-I 20,5 C 33,2 C 3,1 km/h (1 Bft)
18.06.2013 10:55 26,8 C 24,3 C 23,5 C 33,2 C 33,2 C 6,4 C 69 % 78 % 100 % 1014,4 hPa 0,0 l/m 3,4 km/h (1 Bft) SW 225 5 min 0,0 UV-I 20,6 C 33,2 C 4,7 km/h (1 Bft)
18.06.2013 11:00 26,8 C 24,3 C 23,5 C 33,0 C 33,0 C 6,2 C 70 % 78 % 100 % 1014,4 hPa 0,0 l/m 3,4 km/h (1 Bft) W-SW 247 5 min 0,0 UV-I 20,9 C 33,0 C 4,2 km/h (1 Bft)
18.06.2013 11:05 27,0 C 24,3 C 23,6 C 33,3 C 33,3 C 6,3 C 70 % 78 % 100 % 1014,4 hPa 0,0 l/m 2,9 km/h (1 Bft) S-SO 157 5 min 0,0 UV-I 21,0 C 33,3 C 0,0 km/h (0 Bft)
18.06.2013 11:10 27,1 C 24,3 C 23,6 C 33,6 C 33,6 C 6,5 C 69 % 78 % 100 % 1014,4 hPa 0,0 l/m 2,4 km/h (1 Bft) S-SO 157 5 min 0,0 UV-I 20,9 C 33,6 C 3,4 km/h (1 Bft)
18.06.2013 11:15 27,1 C 24,4 C 23,8 C 33,7 C 33,7 C 6,6 C 69 % 78 % 100 % 1014,4 hPa 0,0 l/m 2,6 km/h (1 Bft) SW 225 5 min 0,0 UV-I 20,9 C 33,7 C 2,7 km/h (1 Bft)
18.06.2013 11:20 27,3 C 24,4 C 23,9 C 34,0 C 34,0 C 6,7 C 69 % 78 % 100 % 1014,4 hPa 0,0 l/m 2,3 km/h (1 Bft) W 270 5 min 0,0 UV-I 21,1 C 34,0 C 5,1 km/h (1 Bft)
18.06.2013 11:25 27,2 C 24,4 C 24,0 C 33,8 C 33,8 C 6,6 C 69 % 78 % 100 % 1014,4 hPa 0,0 l/m 2,6 km/h (1 Bft) S 180 5 min 0,0 UV-I 21,0 C 33,8 C 1,8 km/h (1 Bft)
18.06.2013 11:30 27,0 C 24,4 C 24,0 C 33,7 C 33,7 C 6,7 C 68 % 78 % 100 % 1014,4 hPa 0,0 l/m 3,2 km/h (1 Bft) W-SW 247 5 min 0,0 UV-I 20,6 C 33,7 C 3,7 km/h (1 Bft)
18.06.2013 11:35 26,9 C 24,4 C 24,1 C 33,3 C 33,3 C 6,4 C 69 % 77 % 100 % 1014,4 hPa 0,0 l/m 3,5 km/h (1 Bft) W-SW 247 5 min 0,0 UV-I 20,7 C 33,3 C 6,6 km/h (2 Bft)
18.06.2013 11:40 26,9 C 24,5 C 24,2 C 33,0 C 33,0 C 6,1 C 69 % 77 % 100 % 1014,4 hPa 0,0 l/m 3,9 km/h (1 Bft) SW 225 5 min 0,0 UV-I 20,7 C 33,0 C 10,3 km/h (2 Bft)
18.06.2013 11:45 26,7 C 24,5 C 24,2 C 32,7 C 32,7 C 6,0 C 69 % 77 % 100 % 1014,4 hPa 0,0 l/m 4,5 km/h (1 Bft) SW 225 5 min 0,0 UV-I 20,5 C 32,7 C 8,9 km/h (2 Bft)
18.06.2013 11:50 26,7 C 24,5 C 24,2 C 32,0 C 32,0 C 5,3 C 69 % 76 % 100 % 1014,4 hPa 0,0 l/m 5,6 km/h (1 Bft) S 180 5 min 0,0 UV-I 20,5 C 32,0 C 9,2 km/h (2 Bft)
18.06.2013 11:55 26,7 C 24,5 C 24,2 C 31,7 C 31,7 C 5,0 C 69 % 76 % 100 % 1014,5 hPa 0,0 l/m 5,8 km/h (2 Bft) S 180 5 min 0,0 UV-I 20,5 C 31,7 C 4,3 km/h (1 Bft)
18.06.2013 12:00 26,7 C 24,5 C 24,3 C 31,8 C 31,8 C 5,1 C 69 % 77 % 100 % 1014,5 hPa 0,0 l/m 5,5 km/h (1 Bft) W-SW 247 5 min 0,0 UV-I 20,5 C 31,8 C 10,9 km/h (2 Bft)
18.06.2013 12:05 26,9 C 24,5 C 24,3 C 31,7 C 31,7 C 4,8 C 70 % 77 % 100 % 1014,5 hPa 0,0 l/m 4,8 km/h (1 Bft) S-SW 202 5 min 0,0 UV-I 21,0 C 31,7 C 2,6 km/h (1 Bft)
18.06.2013 12:10 27,2 C 24,6 C 24,4 C 32,4 C 32,4 C 5,2 C 69 % 77 % 100 % 1014,5 hPa 0,0 l/m 2,6 km/h (1 Bft) S 180 5 min 0,0 UV-I 21,0 C 32,4 C 1,9 km/h (1 Bft)
18.06.2013 12:15 27,5 C 24,6 C 24,4 C 32,6 C 32,6 C 5,1 C 66 % 77 % 100 % 1014,6 hPa 0,0 l/m 3,1 km/h (1 Bft) SW 225 5 min 0,0 UV-I 20,6 C 32,6 C 3,5 km/h (1 Bft)
18.06.2013 12:20 27,3 C 24,6 C 24,6 C 32,3 C 32,3 C 5,0 C 67 % 76 % 100 % 1014,6 hPa 0,0 l/m 4,2 km/h (1 Bft) W-SW 247 5 min 0,0 UV-I 20,6 C 32,3 C 8,4 km/h (2 Bft)
18.06.2013 12:25 27,5 C 24,6 C 24,6 C 32,2 C 32,2 C 4,7 C 67 % 76 % 100 % 1014,6 hPa 0,0 l/m 4,2 km/h (1 Bft) S-SW 202 5 min 0,0 UV-I 20,8 C 32,2 C 4,5 km/h (1 Bft)
18.06.2013 12:30 27,6 C 24,6 C 24,9 C 32,5 C 32,5 C 4,9 C 67 % 76 % 100 % 1014,6 hPa 0,0 l/m 3,9 km/h (1 Bft) S-SW 202 5 min 0,0 UV-I 20,9 C 32,5 C 4,2 km/h (1 Bft)
18.06.2013 12:35 27,8 C 24,6 C 24,9 C 32,5 C 32,5 C 4,7 C 66 % 76 % 100 % 1014,6 hPa 0,0 l/m 3,9 km/h (1 Bft) N-NW 337 5 min 0,0 UV-I 20,8 C 32,5 C 2,7 km/h (1 Bft)
18.06.2013 12:41 28,1 C 24,6 C 24,8 C 32,5 C 32,5 C 4,4 C 66 % 76 % 100 % 1014,6 hPa 0,0 l/m 3,7 km/h (1 Bft) N 0 6 min 0,0 UV-I 21,1 C 32,5 C 6,1 km/h (2 Bft)
18.06.2013 13:00 28,4 C 24,7 C 25,5 C 33,1 C 33,1 C 4,7 C 65 % 75 % 100 % 1014,9 hPa 0,0 l/m 3,4 km/h (1 Bft) SW 225 19 min 0,0 UV-I 21,2 C 33,1 C 7,6 km/h (2 Bft)
18.06.2013 13:05 28,4 C 24,7 C 25,7 C 33,0 C 33,0 C 4,6 C 65 % 75 % 100 % 1014,9 hPa 0,0 l/m 3,4 km/h (1 Bft) SW 225 5 min 0,0 UV-I 21,2 C 33,0 C 3,7 km/h (1 Bft)
18.06.2013 13:10 28,6 C 24,7 C 25,9 C 33,0 C 33,0 C 4,4 C 65 % 76 % 100 % 1014,9 hPa 0,0 l/m 3,5 km/h (1 Bft) W-SW 247 5 min 0,0 UV-I 21,4 C 33,0 C 3,4 km/h (1 Bft)
18.06.2013 13:15 28,7 C 24,7 C 26,1 C 33,0 C 33,0 C 4,3 C 65 % 75 % 100 % 1015,0 hPa 0,0 l/m 4,0 km/h (1 Bft) S 180 5 min 0,0 UV-I 21,5 C 33,0 C 6,3 km/h (2 Bft)
18.06.2013 13:20 28,7 C 24,7 C 26,0 C 32,8 C 32,8 C 4,1 C 65 % 75 % 100 % 1015,0 hPa 0,0 l/m 4,7 km/h (1 Bft) S-SW 202 5 min 0,0 UV-I 21,5 C 32,8 C 5,0 km/h (1 Bft)
18.06.2013 13:25 28,8 C 24,8 C 25,9 C 32,7 C 32,7 C 3,9 C 64 % 75 % 100 % 1015,0 hPa 0,0 l/m 4,7 km/h (1 Bft) W-SW 247 5 min 0,0 UV-I 21,3 C 32,7 C 5,8 km/h (2 Bft)
18.06.2013 13:30 28,9 C 24,8 C 25,9 C 32,9 C 32,9 C 4,0 C 64 % 74 % 100 % 1015,0 hPa 0,0 l/m 3,9 km/h (1 Bft) W-SW 247 5 min 0,0 UV-I 21,4 C 32,9 C 3,4 km/h (1 Bft)
18.06.2013 13:35 28,9 C 24,8 C 26,0 C 32,9 C 32,9 C 4,0 C 63 % 75 % 100 % 1015,1 hPa 0,0 l/m 4,3 km/h (1 Bft) W-SW 247 5 min 0,0 UV-I 21,1 C 32,9 C 4,3 km/h (1 Bft)
18.06.2013 13:40 29,1 C 24,8 C 26,1 C 32,7 C 32,7 C 3,6 C 63 % 75 % 95 % 1015,1 hPa 0,0 l/m 4,8 km/h (1 Bft) S-SW 202 5 min 0,0 UV-I 21,3 C 32,7 C 3,4 km/h (1 Bft)
18.06.2013 13:45 29,0 C 24,8 C 26,4 C 32,7 C 32,7 C 3,7 C 63 % 74 % 97 % 1015,1 hPa 0,0 l/m 4,8 km/h (1 Bft) SW 225 5 min 0,0 UV-I 21,2 C 32,7 C 4,8 km/h (1 Bft)
18.06.2013 13:50 29,3 C 24,9 C 27,0 C 33,0 C 33,0 C 3,7 C 62 % 73 % 97 % 1015,1 hPa 0,0 l/m 4,0 km/h (1 Bft) S-SW 202 5 min 0,0 UV-I 21,2 C 33,0 C 5,8 km/h (2 Bft)
18.06.2013 13:55 29,3 C 24,9 C 27,0 C 33,0 C 33,0 C 3,7 C 62 % 73 % 97 % 1014,8 hPa 0,0 l/m 3,7 km/h (1 Bft) W-SW 247 5 min 0,0 UV-I 21,2 C 33,0 C 5,8 km/h (2 Bft)
18.06.2013 14:00 29,8 C 24,9 C 26,9 C 33,5 C 33,5 C 3,7 C 63 % 74 % 97 % 1014,8 hPa 0,0 l/m 3,1 km/h (1 Bft) O-SO 112 5 min 0,0 UV-I 22,0 C 33,5 C 0,0 km/h (0 Bft)
18.06.2013 14:05 30,1 C 24,8 C 27,2 C 33,9 C 33,9 C 3,8 C 61 % 72 % 100 % 1014,8 hPa 0,0 l/m 2,7 km/h (1 Bft) W-SW 247 5 min 0,0 UV-I 21,7 C 33,9 C 4,3 km/h (1 Bft)
18.06.2013 14:10 30,3 C 25,0 C 27,0 C 34,2 C 34,2 C 3,9 C 61 % 73 % 100 % 1014,8 hPa 0,0 l/m 2,6 km/h (1 Bft) S-SO 157 5 min 0,0 UV-I 21,9 C 34,2 C 0,0 km/h (0 Bft)
18.06.2013 14:15 30,7 C 25,0 C 26,9 C 34,2 C 34,2 C 3,5 C 61 % 73 % 92 % 1015,1 hPa 0,0 l/m 2,7 km/h (1 Bft) W 270 5 min 0,0 UV-I 22,3 C 34,2 C 6,1 km/h (2 Bft)
18.06.2013 14:20 31,2 C 25,0 C 26,9 C 34,7 C 34,7 C 3,5 C 60 % 73 % 92 % 1015,1 hPa 0,0 l/m 1,3 km/h (1 Bft) S-SO 157 5 min 0,0 UV-I 22,5 C 34,7 C 0,0 km/h (0 Bft)
18.06.2013 14:25 31,6 C 25,0 C 26,9 C 35,3 C 35,3 C 3,7 C 60 % 73 % 97 % 1015,1 hPa 0,0 l/m 0,3 km/h (0 Bft) NW 315 5 min 0,0 UV-I 22,9 C 35,3 C 0,0 km/h (0 Bft)
18.06.2013 14:30 31,9 C 25,1 C 27,0 C 35,5 C 35,5 C 3,6 C 60 % 73 % 95 % 1015,1 hPa 0,0 l/m 1,1 km/h (1 Bft) O-SO 112 5 min 0,0 UV-I 23,1 C 35,5 C 0,0 km/h (0 Bft)
18.06.2013 14:35 32,3 C 25,1 C 27,2 C 35,6 C 35,6 C 3,3 C 59 % 73 % 87 % 1014,9 hPa 0,0 l/m 1,8 km/h (1 Bft) SW 225 5 min 0,0 UV-I 23,2 C 35,6 C 6,4 km/h (2 Bft)
18.06.2013 14:40 32,5 C 25,1 C 27,2 C 35,2 C 35,2 C 2,7 C 57 % 74 % 71 % 1014,9 hPa 0,0 l/m 2,1 km/h (1 Bft) SW 225 0 min 0,0 UV-I 22,9 C 35,2 C 2,7 km/h (1 Bft)
18.06.2013 14:45 32,5 C 25,1 C 27,2 C 35,2 C 35,2 C 2,7 C 58 % 73 % 71 % 1014,9 hPa 0,0 l/m 2,3 km/h (1 Bft) SW 225 0 min 0,0 UV-I 23,1 C 35,2 C 0,0 km/h (0 Bft)
18.06.2013 14:50 32,7 C 25,2 C 27,4 C 35,8 C 35,8 C 3,1 C 58 % 73 % 82 % 1014,9 hPa 0,0 l/m 0,6 km/h (0 Bft) SW 225 0 min 0,0 UV-I 23,3 C 35,8 C 3,7 km/h (1 Bft)
18.06.2013 14:55 32,5 C 25,2 C 27,4 C 35,9 C 35,9 C 3,4 C 56 % 73 % 89 % 1015,1 hPa 0,0 l/m 1,4 km/h (1 Bft) SW 225 5 min 0,0 UV-I 22,6 C 35,9 C 4,3 km/h (1 Bft)
18.06.2013 15:00 32,5 C 25,2 C 27,2 C 35,2 C 35,2 C 2,7 C 58 % 74 % 71 % 1015,1 hPa 0,0 l/m 3,1 km/h (1 Bft) SW 225 0 min 0,0 UV-I 23,1 C 35,2 C 3,1 km/h (1 Bft)
18.06.2013 15:05 32,6 C 25,2 C 27,2 C 35,2 C 35,2 C 2,6 C 58 % 74 % 68 % 1015,1 hPa 0,0 l/m 2,6 km/h (1 Bft) W-SW 247 0 min 0,0 UV-I 23,2 C 35,2 C 2,4 km/h (1 Bft)
18.06.2013 15:10 33,0 C 25,2 C 27,5 C 35,2 C 35,2 C 2,2 C 57 % 74 % 58 % 1015,1 hPa 0,0 l/m 2,4 km/h (1 Bft) O 90 0 min 0,0 UV-I 23,3 C 35,2 C 3,2 km/h (1 Bft)
18.06.2013 15:15 33,2 C 25,3 C 27,5 C 35,3 C 35,3 C 2,1 C 56 % 74 % 55 % 1014,8 hPa 0,0 l/m 2,1 km/h (1 Bft) SO 135 0 min 0,0 UV-I 23,2 C 35,3 C 0,0 km/h (0 Bft)
18.06.2013 15:20 32,9 C 25,3 C 27,6 C 35,3 C 35,3 C 2,4 C 57 % 74 % 63 % 1014,8 hPa 0,0 l/m 2,6 km/h (1 Bft) SO 135 0 min 0,0 UV-I 23,2 C 35,3 C 3,7 km/h (1 Bft)
18.06.2013 15:25 32,5 C 25,3 C 27,6 C 35,1 C 35,1 C 2,6 C 58 % 74 % 68 % 1014,8 hPa 0,0 l/m 3,1 km/h (1 Bft) SW 225 0 min 0,0 UV-I 23,1 C 35,1 C 1,9 km/h (1 Bft)
18.06.2013 15:30 32,4 C 25,3 C 27,9 C 35,2 C 35,2 C 2,8 C 58 % 74 % 74 % 1014,8 hPa 0,0 l/m 3,2 km/h (1 Bft) W 270 0 min 0,0 UV-I 23,0 C 35,2 C 1,6 km/h (1 Bft)
18.06.2013 15:35 32,5 C 25,4 C 27,8 C 35,2 C 35,2 C 2,7 C 58 % 74 % 71 % 1014,9 hPa 0,0 l/m 3,1 km/h (1 Bft) W-SW 247 0 min 0,0 UV-I 23,1 C 35,2 C 4,0 km/h (1 Bft)
18.06.2013 15:40 32,4 C 25,4 C 27,9 C 35,5 C 35,5 C 3,1 C 58 % 74 % 82 % 1014,9 hPa 0,0 l/m 2,6 km/h (1 Bft) S 180 0 min 0,0 UV-I 23,0 C 35,5 C 5,1 km/h (1 Bft)
18.06.2013 15:45 32,3 C 25,4 C 28,0 C 35,6 C 35,6 C 3,3 C 58 % 73 % 87 % 1014,9 hPa 0,0 l/m 2,6 km/h (1 Bft) W-NW 292 5 min 0,0 UV-I 23,0 C 35,6 C 2,6 km/h (1 Bft)
18.06.2013 15:50 32,1 C 25,4 C 28,2 C 36,2 C 36,2 C 4,1 C 59 % 72 % 100 % 1014,9 hPa 0,0 l/m 1,8 km/h (1 Bft) O-SO 112 5 min 0,0 UV-I 23,1 C 36,2 C 0,0 km/h (0 Bft)
18.06.2013 15:55 32,0 C 25,5 C 28,2 C 36,3 C 36,3 C 4,3 C 58 % 73 % 100 % 1014,8 hPa 0,0 l/m 2,1 km/h (1 Bft) S-SW 202 5 min 0,0 UV-I 22,7 C 36,3 C 6,1 km/h (2 Bft)
18.06.2013 16:00 31,9 C 25,5 C 28,1 C 35,8 C 35,8 C 3,9 C 59 % 74 % 100 % 1014,8 hPa 0,0 l/m 3,2 km/h (1 Bft) SO 135 5 min 0,0 UV-I 22,9 C 35,8 C 3,7 km/h (1 Bft)
18.06.2013 16:05 32,0 C 25,5 C 28,3 C 35,6 C 35,6 C 3,6 C 59 % 73 % 95 % 1014,8 hPa 0,0 l/m 3,4 km/h (1 Bft) W 270 5 min 0,0 UV-I 23,0 C 35,6 C 3,7 km/h (1 Bft)
18.06.2013 16:10 32,1 C 25,5 C 28,1 C 35,5 C 35,5 C 3,4 C 59 % 73 % 89 % 1014,8 hPa 0,0 l/m 2,9 km/h (1 Bft) SW 225 5 min 0,0 UV-I 23,1 C 35,5 C 4,2 km/h (1 Bft)
18.06.2013 16:15 31,9 C 25,6 C 28,2 C 35,4 C 35,4 C 3,5 C 59 % 73 % 92 % 1014,8 hPa 0,0 l/m 3,4 km/h (1 Bft) W 270 5 min 0,0 UV-I 22,9 C 35,4 C 2,3 km/h (1 Bft)
18.06.2013 16:20 31,8 C 25,6 C 28,3 C 35,5 C 35,5 C 3,7 C 59 % 72 % 97 % 1014,8 hPa 0,0 l/m 3,4 km/h (1 Bft) N-NW 337 5 min 0,0 UV-I 22,8 C 35,5 C 3,2 km/h (1 Bft)
18.06.2013 16:25 31,8 C 25,6 C 28,4 C 35,6 C 35,6 C 3,8 C 59 % 73 % 100 % 1014,8 hPa 0,0 l/m 2,7 km/h (1 Bft) SW 225 5 min 0,0 UV-I 22,8 C 35,6 C 5,1 km/h (1 Bft)
18.06.2013 16:30 31,9 C 25,6 C 28,3 C 35,7 C 35,7 C 3,8 C 59 % 72 % 100 % 1014,8 hPa 0,0 l/m 2,9 km/h (1 Bft) SW 225 5 min 0,0 UV-I 22,9 C 35,7 C 4,3 km/h (1 Bft)
18.06.2013 16:35 31,9 C 25,7 C 28,4 C 35,7 C 35,7 C 3,8 C 60 % 72 % 100 % 1014,9 hPa 0,0 l/m 3,1 km/h (1 Bft) W 270 5 min 0,0 UV-I 23,1 C 35,7 C 3,7 km/h (1 Bft)
18.06.2013 16:40 32,0 C 25,7 C 28,3 C 35,7 C 35,7 C 3,7 C 59 % 72 % 97 % 1014,9 hPa 0,0 l/m 3,4 km/h (1 Bft) W-SW 247 5 min 0,0 UV-I 23,0 C 35,7 C 4,2 km/h (1 Bft)
18.06.2013 16:45 31,9 C 25,7 C 28,3 C 35,5 C 35,5 C 3,6 C 59 % 72 % 95 % 1014,9 hPa 0,0 l/m 3,9 km/h (1 Bft) S 180 5 min 0,0 UV-I 22,9 C 35,5 C 7,6 km/h (2 Bft)
18.06.2013 16:50 31,8 C 25,7 C 28,4 C 35,5 C 35,5 C 3,7 C 58 % 72 % 97 % 1014,9 hPa 0,0 l/m 3,1 km/h (1 Bft) O-NO 67 5 min 0,0 UV-I 22,5 C 35,5 C 3,2 km/h (1 Bft)
18.06.2013 16:55 31,5 C 25,8 C 28,4 C 35,6 C 35,6 C 4,1 C 59 % 71 % 100 % 1014,9 hPa 0,0 l/m 2,1 km/h (1 Bft) SW 225 5 min 0,0 UV-I 22,5 C 35,6 C 3,2 km/h (1 Bft)
18.06.2013 17:00 31,2 C 25,8 C 28,2 C 35,7 C 35,7 C 4,5 C 61 % 72 % 100 % 1014,9 hPa 0,0 l/m 2,9 km/h (1 Bft) S 180 5 min 0,0 UV-I 22,8 C 35,7 C 5,1 km/h (1 Bft)
18.06.2013 17:05 31,2 C 25,8 C 28,3 C 35,5 C 35,5 C 4,3 C 61 % 73 % 100 % 1014,9 hPa 0,0 l/m 3,9 km/h (1 Bft) S 180 5 min 0,0 UV-I 22,8 C 35,5 C 2,1 km/h (1 Bft)
18.06.2013 17:10 31,6 C 25,8 C 28,3 C 35,5 C 35,5 C 3,9 C 60 % 73 % 100 % 1014,9 hPa 0,0 l/m 3,5 km/h (1 Bft) W 270 5 min 0,0 UV-I 22,9 C 35,5 C 4,0 km/h (1 Bft)
18.06.2013 17:15 31,5 C 25,8 C 28,2 C 35,3 C 35,3 C 3,8 C 60 % 73 % 100 % 1014,9 hPa 0,0 l/m 3,7 km/h (1 Bft) SW 225 5 min 0,0 UV-I 22,8 C 35,3 C 3,5 km/h (1 Bft)
18.06.2013 17:20 31,3 C 25,8 C 28,2 C 35,2 C 35,2 C 3,9 C 60 % 73 % 100 % 1014,9 hPa 0,0 l/m 4,2 km/h (1 Bft) S 180 5 min 0,0 UV-I 22,6 C 35,2 C 6,6 km/h (2 Bft)
18.06.2013 17:26 31,5 C 25,9 C 28,2 C 35,1 C 35,1 C 3,6 C 60 % 73 % 95 % 1014,9 hPa 0,0 l/m 3,9 km/h (1 Bft) W-SW 247 6 min 0,0 UV-I 22,8 C 35,1 C 3,4 km/h (1 Bft)
18.06.2013 17:30 31,5 C 25,9 C 28,1 C 35,2 C 35,2 C 3,7 C 59 % 73 % 97 % 1014,9 hPa 0,0 l/m 3,7 km/h (1 Bft) SW 225 4 min 0,0 UV-I 22,5 C 35,2 C 2,7 km/h (1 Bft)
18.06.2013 17:35 31,5 C 25,9 C 28,1 C 35,2 C 35,2 C 3,7 C 59 % 73 % 97 % 1015,0 hPa 0,0 l/m 3,5 km/h (1 Bft) S 180 5 min 0,0 UV-I 22,5 C 35,2 C 4,5 km/h (1 Bft)
18.06.2013 17:40 31,4 C 25,9 C 28,1 C 35,4 C 35,4 C 4,0 C 60 % 73 % 100 % 1015,0 hPa 0,0 l/m 3,2 km/h (1 Bft) S-SW 202 5 min 0,0 UV-I 22,7 C 35,4 C 1,8 km/h (1 Bft)
18.06.2013 17:45 31,9 C 25,9 C 28,2 C 35,6 C 35,6 C 3,7 C 60 % 73 % 97 % 1015,0 hPa 0,0 l/m 2,6 km/h (1 Bft) SW 225 5 min 0,0 UV-I 23,1 C 35,6 C 3,7 km/h (1 Bft)
18.06.2013 17:50 31,9 C 26,0 C 28,1 C 35,8 C 35,8 C 3,9 C 59 % 73 % 100 % 1015,0 hPa 0,0 l/m 2,4 km/h (1 Bft) W 270 5 min 0,0 UV-I 22,9 C 35,8 C 3,1 km/h (1 Bft)
18.06.2013 17:55 31,4 C 26,0 C 27,9 C 35,1 C 35,1 C 3,7 C 60 % 74 % 97 % 1015,3 hPa 0,0 l/m 2,7 km/h (1 Bft) SW 225 5 min 0,0 UV-I 22,7 C 35,1 C 4,8 km/h (1 Bft)
18.06.2013 18:00 31,1 C 26,0 C 27,7 C 34,1 C 34,1 C 3,0 C 61 % 74 % 79 % 1015,3 hPa 0,0 l/m 1,9 km/h (1 Bft) S 180 0 min 0,0 UV-I 22,7 C 34,1 C 2,1 km/h (1 Bft)
18.06.2013 18:05 31,0 C 26,0 C 27,5 C 33,6 C 33,6 C 2,6 C 61 % 74 % 68 % 1015,3 hPa 0,0 l/m 1,1 km/h (1 Bft) O-NO 67 0 min 0,0 UV-I 22,6 C 33,6 C 0,0 km/h (0 Bft)
18.06.2013 18:10 30,7 C 26,0 C 27,5 C 33,4 C 33,4 C 2,7 C 62 % 74 % 71 % 1015,3 hPa 0,0 l/m 0,6 km/h (0 Bft) SW 225 0 min 0,0 UV-I 22,6 C 33,4 C 0,0 km/h (0 Bft)
18.06.2013 18:15 30,7 C 26,1 C 27,4 C 33,4 C 33,4 C 2,7 C 63 % 74 % 71 % 1015,2 hPa 0,0 l/m 0,2 km/h (0 Bft) O-NO 67 0 min 0,0 UV-I 22,8 C 33,4 C 0,0 km/h (0 Bft)
18.06.2013 18:20 30,7 C 26,1 C 27,4 C 33,3 C 33,3 C 2,6 C 63 % 74 % 68 % 1015,2 hPa 0,0 l/m 0,5 km/h (0 Bft) N 360 0 min 0,0 UV-I 22,8 C 33,3 C 1,6 km/h (1 Bft)
18.06.2013 18:25 30,8 C 26,1 C 27,6 C 32,9 C 32,9 C 2,1 C 64 % 75 % 55 % 1015,2 hPa 0,0 l/m 0,5 km/h (0 Bft) N 360 0 min 0,0 UV-I 23,2 C 32,9 C 0,0 km/h (0 Bft)
18.06.2013 18:30 30,7 C 26,1 C 27,6 C 32,2 C 32,2 C 1,5 C 63 % 73 % 39 % 1015,2 hPa 0,0 l/m 1,1 km/h (1 Bft) N-NO 22 0 min 0,0 UV-I 22,8 C 32,2 C 3,1 km/h (1 Bft)
18.06.2013 18:35 30,5 C 26,1 C 27,7 C 31,9 C 31,9 C 1,4 C 63 % 74 % 37 % 1015,2 hPa 0,0 l/m 1,3 km/h (1 Bft) O 90 0 min 0,0 UV-I 22,6 C 31,9 C 0,0 km/h (0 Bft)
18.06.2013 18:41 30,4 C 26,1 C 27,7 C 31,5 C 31,5 C 1,1 C 64 % 74 % 29 % 1015,2 hPa 0,0 l/m 1,0 km/h (0 Bft) N 0 0 min 0,0 UV-I 22,8 C 31,5 C 1,8 km/h (1 Bft)
18.06.2013 19:00 29,7 C 26,2 C 27,2 C 30,5 C 30,5 C 0,8 C 66 % 74 % 21 % 1015,0 hPa 0,0 l/m 0,2 km/h (0 Bft) NW 315 0 min 0,0 UV-I 22,6 C 30,5 C 0,0 km/h (0 Bft)
18.06.2013 19:05 29,5 C 26,2 C 27,2 C 30,2 C 30,2 C 0,7 C 67 % 74 % 18 % 1015,0 hPa 0,0 l/m 0,2 km/h (0 Bft) O-NO 67 0 min 0,0 UV-I 22,7 C 30,2 C 0,0 km/h (0 Bft)
18.06.2013 19:10 29,3 C 26,3 C 26,8 C 29,8 C 29,8 C 0,5 C 67 % 75 % 13 % 1015,0 hPa 0,0 l/m 0,2 km/h (0 Bft) O-NO 67 0 min 0,0 UV-I 22,5 C 29,8 C 0,0 km/h (0 Bft)
18.06.2013 19:15 29,1 C 26,3 C 26,7 C 29,6 C 29,6 C 0,5 C 68 % 76 % 13 % 1014,9 hPa 0,0 l/m 0,2 km/h (0 Bft) N-NW 337 0 min 0,0 UV-I 22,6 C 29,6 C 0,0 km/h (0 Bft)
18.06.2013 19:20 28,9 C 26,3 C 26,5 C 29,1 C 29,1 C 0,2 C 69 % 76 % 5 % 1014,9 hPa 0,0 l/m 0,0 km/h (0 Bft) O-NO 67 0 min 0,0 UV-I 22,6 C 29,1 C 0,0 km/h (0 Bft)
18.06.2013 19:25 28,7 C 26,5 C 26,2 C 28,9 C 28,9 C 0,2 C 70 % 77 % 5 % 1014,9 hPa 0,0 l/m 0,0 km/h (0 Bft) O 90 0 min 0,0 UV-I 22,7 C 28,9 C 0,0 km/h (0 Bft)
18.06.2013 19:30 28,3 C 26,5 C 26,0 C 28,6 C 28,6 C 0,3 C 71 % 78 % 8 % 1014,9 hPa 0,0 l/m 0,0 km/h (0 Bft) O 90 0 min 0,0 UV-I 22,5 C 28,6 C 0,0 km/h (0 Bft)
18.06.2013 19:35 28,2 C 26,4 C 25,8 C 28,5 C 28,5 C 0,3 C 71 % 78 % 8 % 1015,2 hPa 0,0 l/m 0,0 km/h (0 Bft) O 90 0 min 0,0 UV-I 22,4 C 28,5 C 0,0 km/h (0 Bft)
18.06.2013 19:40 28,0 C 26,5 C 25,7 C 28,2 C 28,2 C 0,2 C 71 % 78 % 5 % 1015,2 hPa 0,0 l/m 0,0 km/h (0 Bft) O 90 0 min 0,0 UV-I 22,2 C 28,2 C 0,0 km/h (0 Bft)
18.06.2013 19:45 27,8 C 26,5 C 25,6 C 27,9 C 27,9 C 0,1 C 72 % 78 % 3 % 1015,2 hPa 0,0 l/m 0,0 km/h (0 Bft) O 90 0 min 0,0 UV-I 22,3 C 27,9 C 0,0 km/h (0 Bft)
18.06.2013 19:50 27,7 C 26,5 C 25,4 C 27,7 C 27,7 C 0,0 C 72 % 78 % 0 % 1015,2 hPa 0,0 l/m 0,0 km/h (0 Bft) O 90 0 min 0,0 UV-I 22,2 C 27,7 C 0,0 km/h (0 Bft)
18.06.2013 19:55 27,5 C 26,5 C 25,3 C 27,5 C 27,5 C 0,0 C 73 % 78 % 0 % 1015,1 hPa 0,0 l/m 0,0 km/h (0 Bft) O 90 0 min 0,0 UV-I 22,2 C 27,5 C 0,0 km/h (0 Bft)
18.06.2013 20:00 27,3 C 26,5 C 25,2 C 27,3 C 27,2 C 0,0 C 74 % 79 % 0 % 1015,1 hPa 0,0 l/m 0,0 km/h (0 Bft) O 90 0 min 0,0 UV-I 22,2 C 27,2 C 0,0 km/h (0 Bft)
18.06.2013 20:05 27,3 C 26,5 C 25,1 C 27,2 C 27,1 C 0,0 C 74 % 79 % 0 % 1015,1 hPa 0,0 l/m 0,0 km/h (0 Bft) O 90 0 min 0,0 UV-I 22,2 C 27,1 C 0,0 km/h (0 Bft)
18.06.2013 20:10 27,2 C 26,6 C 25,0 C 27,1 C 26,8 C 0,0 C 75 % 79 % 0 % 1015,1 hPa 0,0 l/m 0,0 km/h (0 Bft) O-NO 67 0 min 0,0 UV-I 22,4 C 26,8 C 0,0 km/h (0 Bft)
18.06.2013 20:15 27,2 C 26,6 C 25,1 C 27,1 C 26,8 C 0,0 C 76 % 80 % 0 % 1014,9 hPa 0,0 l/m 0,0 km/h (0 Bft) W-SW 247 0 min 0,0 UV-I 22,6 C 26,8 C 0,0 km/h (0 Bft)
18.06.2013 20:20 27,1 C 26,8 C 24,9 C 26,9 C 26,4 C 0,0 C 77 % 80 % 0 % 1014,9 hPa 0,0 l/m 0,0 km/h (0 Bft) W-SW 247 0 min 0,0 UV-I 22,7 C 26,4 C 0,0 km/h (0 Bft)
18.06.2013 20:25 27,0 C 26,8 C 24,9 C 26,7 C 26,2 C 0,0 C 78 % 80 % 0 % 1014,9 hPa 0,0 l/m 0,0 km/h (0 Bft) SW 225 0 min 0,0 UV-I 22,8 C 26,2 C 0,0 km/h (0 Bft)
18.06.2013 20:30 26,8 C 26,8 C 24,7 C 26,5 C 26,0 C 0,0 C 77 % 80 % 0 % 1014,9 hPa 0,0 l/m 0,0 km/h (0 Bft) SW 225 0 min 0,0 UV-I 22,4 C 26,0 C 0,0 km/h (0 Bft)
18.06.2013 20:35 26,8 C 26,9 C 24,7 C 26,5 C 25,9 C 0,0 C 78 % 80 % 0 % 1015,0 hPa 0,0 l/m 0,0 km/h (0 Bft) S-SW 202 0 min 0,0 UV-I 22,6 C 25,9 C 0,0 km/h (0 Bft)
18.06.2013 20:40 26,7 C 26,9 C 24,7 C 26,4 C 25,7 C 0,0 C 79 % 80 % 0 % 1015,0 hPa 0,0 l/m 0,0 km/h (0 Bft) SW 225 0 min 0,0 UV-I 22,7 C 25,7 C 0,0 km/h (0 Bft)
18.06.2013 20:45 26,5 C 26,9 C 24,7 C 26,2 C 25,7 C 0,0 C 80 % 80 % 0 % 1015,0 hPa 0,0 l/m 0,0 km/h (0 Bft) SW 225 0 min 0,0 UV-I 22,8 C 25,7 C 0,0 km/h (0 Bft)
18.06.2013 20:50 26,3 C 26,9 C 24,5 C 26,1 C 25,6 C 0,0 C 80 % 80 % 0 % 1015,0 hPa 0,0 l/m 0,0 km/h (0 Bft) SW 225 0 min 0,0 UV-I 22,6 C 25,6 C 0,0 km/h (0 Bft)
18.06.2013 20:55 26,3 C 26,9 C 24,4 C 26,0 C 25,5 C 0,0 C 80 % 80 % 0 % 1015,1 hPa 0,0 l/m 0,0 km/h (0 Bft) SW 225 0 min 0,0 UV-I 22,6 C 25,5 C 0,0 km/h (0 Bft)
18.06.2013 21:00 26,0 C 27,0 C 24,4 C 25,8 C 25,4 C 0,0 C 81 % 80 % 0 % 1015,1 hPa 0,0 l/m 0,0 km/h (0 Bft) O 90 0 min 0,0 UV-I 22,5 C 25,4 C 0,0 km/h (0 Bft)
18.06.2013 21:05 25,9 C 27,0 C 24,4 C 25,7 C 25,3 C 0,0 C 82 % 80 % 0 % 1015,1 hPa 0,0 l/m 0,0 km/h (0 Bft) O-NO 67 0 min 0,0 UV-I 22,6 C 25,3 C 0,0 km/h (0 Bft)
18.06.2013 21:10 25,6 C 26,9 C 24,3 C 25,4 C 25,1 C 0,0 C 82 % 80 % 0 % 1015,1 hPa 0,0 l/m 0,0 km/h (0 Bft) W-SW 247 0 min 0,0 UV-I 22,3 C 25,1 C 1,9 km/h (1 Bft)
18.06.2013 21:15 25,5 C 26,9 C 24,2 C 25,3 C 25,0 C 0,0 C 82 % 80 % 0 % 1015,1 hPa 0,0 l/m 0,2 km/h (0 Bft) W-SW 247 0 min 0,0 UV-I 22,2 C 25,0 C 0,0 km/h (0 Bft)
18.06.2013 21:20 25,4 C 26,9 C 24,0 C 25,2 C 24,8 C 0,0 C 82 % 80 % 0 % 1015,1 hPa 0,0 l/m 0,2 km/h (0 Bft) W 270 0 min 0,0 UV-I 22,1 C 24,8 C 0,0 km/h (0 Bft)
18.06.2013 21:25 25,3 C 26,9 C 24,0 C 25,1 C 24,7 C 0,0 C 83 % 80 % 0 % 1015,1 hPa 0,0 l/m 0,0 km/h (0 Bft) N-NW 337 0 min 0,0 UV-I 22,2 C 24,7 C 0,0 km/h (0 Bft)
18.06.2013 21:30 25,0 C 27,0 C 23,9 C 24,8 C 24,5 C 0,0 C 83 % 80 % 0 % 1015,1 hPa 0,0 l/m 0,0 km/h (0 Bft) N-NW 337 0 min 0,0 UV-I 21,9 C 24,5 C 0,0 km/h (0 Bft)
18.06.2013 21:35 24,9 C 27,0 C 23,8 C 24,7 C 24,3 C 0,0 C 83 % 80 % 0 % 1015,6 hPa 0,0 l/m 0,0 km/h (0 Bft) N-NW 337 0 min 0,0 UV-I 21,8 C 24,3 C 0,0 km/h (0 Bft)
18.06.2013 21:40 24,7 C 27,1 C 23,6 C 24,5 C 24,1 C 0,0 C 83 % 80 % 0 % 1015,6 hPa 0,0 l/m 0,0 km/h (0 Bft) W 270 0 min 0,0 UV-I 21,6 C 24,1 C 0,0 km/h (0 Bft)
18.06.2013 21:45 24,5 C 27,1 C 23,6 C 24,3 C 23,9 C 0,0 C 83 % 80 % 0 % 1015,6 hPa 0,0 l/m 0,0 km/h (0 Bft) W 270 0 min 0,0 UV-I 21,4 C 23,9 C 0,0 km/h (0 Bft)
18.06.2013 21:50 24,3 C 27,1 C 23,4 C 24,1 C 23,7 C 0,0 C 83 % 80 % 0 % 1015,6 hPa 0,0 l/m 0,0 km/h (0 Bft) O-NO 67 0 min 0,0 UV-I 21,2 C 23,7 C 0,0 km/h (0 Bft)
18.06.2013 21:55 24,1 C 27,1 C 23,5 C 23,9 C 23,6 C 0,0 C 84 % 80 % 0 % 1015,0 hPa 0,0 l/m 0,0 km/h (0 Bft) O-NO 67 0 min 0,0 UV-I 21,2 C 23,6 C 0,0 km/h (0 Bft)
18.06.2013 22:00 23,7 C 27,1 C 23,3 C 23,6 C 23,4 C 0,0 C 84 % 80 % 0 % 1015,0 hPa 0,0 l/m 0,0 km/h (0 Bft) O-SO 112 0 min 0,0 UV-I 20,8 C 23,4 C 0,0 km/h (0 Bft)
18.06.2013 22:05 23,6 C 27,1 C 23,2 C 23,5 C 23,3 C 0,0 C 84 % 80 % 0 % 1015,0 hPa 0,0 l/m 0,0 km/h (0 Bft) S 180 0 min 0,0 UV-I 20,7 C 23,3 C 0,0 km/h (0 Bft)
18.06.2013 22:10 23,4 C 27,0 C 23,1 C 23,3 C 23,1 C 0,0 C 84 % 80 % 0 % 1015,0 hPa 0,0 l/m 0,0 km/h (0 Bft) W-SW 247 0 min 0,0 UV-I 20,5 C 23,1 C 0,0 km/h (0 Bft)
18.06.2013 22:15 23,3 C 27,0 C 23,0 C 23,2 C 23,1 C 0,0 C 84 % 80 % 0 % 1016,0 hPa 0,0 l/m 0,0 km/h (0 Bft) SW 225 0 min 0,0 UV-I 20,4 C 23,1 C 0,0 km/h (0 Bft)
18.06.2013 22:20 23,2 C 27,0 C 23,0 C 23,1 C 22,9 C 0,0 C 85 % 80 % 0 % 1016,0 hPa 0,0 l/m 0,0 km/h (0 Bft) NW 315 0 min 0,0 UV-I 20,5 C 22,9 C 0,0 km/h (0 Bft)
18.06.2013 22:25 23,0 C 27,0 C 23,1 C 23,0 C 22,9 C 0,0 C 85 % 80 % 0 % 1016,0 hPa 0,0 l/m 0,0 km/h (0 Bft) N-NW 337 0 min 0,0 UV-I 20,3 C 22,9 C 0,0 km/h (0 Bft)
18.06.2013 22:30 22,9 C 27,0 C 22,9 C 22,8 C 22,7 C 0,0 C 85 % 80 % 0 % 1016,0 hPa 0,0 l/m 0,0 km/h (0 Bft) N-NW 337 0 min 0,0 UV-I 20,2 C 22,7 C 0,0 km/h (0 Bft)
18.06.2013 22:35 22,8 C 27,0 C 22,8 C 22,7 C 22,6 C 0,0 C 85 % 80 % 0 % 1016,0 hPa 0,0 l/m 0,0 km/h (0 Bft) W-SW 247 0 min 0,0 UV-I 20,1 C 22,6 C 0,0 km/h (0 Bft)
18.06.2013 22:40 22,7 C 27,0 C 22,7 C 22,6 C 22,5 C 0,0 C 85 % 80 % 0 % 1016,0 hPa 0,0 l/m 0,0 km/h (0 Bft) W-SW 247 0 min 0,0 UV-I 20,0 C 22,5 C 0,0 km/h (0 Bft)
18.06.2013 22:45 22,6 C 27,0 C 22,6 C 22,5 C 22,4 C 0,0 C 85 % 80 % 0 % 1016,0 hPa 0,0 l/m 0,0 km/h (0 Bft) S 180 0 min 0,0 UV-I 19,9 C 22,4 C 0,0 km/h (0 Bft)
18.06.2013 22:50 22,4 C 27,0 C 22,4 C 22,3 C 22,2 C 0,0 C 85 % 80 % 0 % 1016,0 hPa 0,0 l/m 0,0 km/h (0 Bft) O-SO 112 0 min 0,0 UV-I 19,7 C 22,2 C 0,0 km/h (0 Bft)
18.06.2013 22:55 22,4 C 27,0 C 22,4 C 22,3 C 22,1 C 0,0 C 85 % 80 % 0 % 1016,3 hPa 0,0 l/m 0,0 km/h (0 Bft) O-NO 67 0 min 0,0 UV-I 19,7 C 22,1 C 0,0 km/h (0 Bft)
18.06.2013 23:00 22,3 C 27,0 C 22,4 C 22,2 C 22,1 C 0,0 C 86 % 80 % 0 % 1016,3 hPa 0,0 l/m 0,0 km/h (0 Bft) N-NW 337 0 min 0,0 UV-I 19,8 C 22,1 C 0,0 km/h (0 Bft)
18.06.2013 23:05 22,2 C 27,0 C 22,4 C 22,1 C 22,0 C 0,0 C 86 % 81 % 0 % 1016,3 hPa 0,0 l/m 0,0 km/h (0 Bft) N 360 0 min 0,0 UV-I 19,7 C 22,0 C 0,0 km/h (0 Bft)
18.06.2013 23:10 22,0 C 27,0 C 22,3 C 22,0 C 21,9 C 0,0 C 86 % 81 % 0 % 1016,3 hPa 0,0 l/m 0,0 km/h (0 Bft) NW 315 0 min 0,0 UV-I 19,5 C 21,9 C 0,0 km/h (0 Bft)
18.06.2013 23:15 22,1 C 26,9 C 22,3 C 22,0 C 21,8 C 0,0 C 86 % 80 % 0 % 1016,4 hPa 0,0 l/m 0,0 km/h (0 Bft) O-NO 67 0 min 0,0 UV-I 19,6 C 21,8 C 0,0 km/h (0 Bft)
18.06.2013 23:20 21,9 C 27,0 C 22,1 C 21,8 C 21,7 C 0,0 C 87 % 81 % 0 % 1016,4 hPa 0,0 l/m 0,0 km/h (0 Bft) W-SW 247 0 min 0,0 UV-I 19,6 C 21,7 C 0,0 km/h (0 Bft)
18.06.2013 23:25 21,9 C 26,9 C 22,1 C 21,8 C 21,7 C 0,0 C 87 % 81 % 0 % 1016,4 hPa 0,0 l/m 0,0 km/h (0 Bft) W-SW 247 0 min 0,0 UV-I 19,6 C 21,7 C 0,0 km/h (0 Bft)
18.06.2013 23:30 21,7 C 26,9 C 22,1 C 21,7 C 21,7 C 0,0 C 87 % 81 % 0 % 1016,4 hPa 0,0 l/m 0,0 km/h (0 Bft) O-NO 67 0 min 0,0 UV-I 19,4 C 21,7 C 0,0 km/h (0 Bft)
18.06.2013 23:35 21,7 C 26,9 C 22,0 C 21,7 C 21,7 C 0,0 C 87 % 81 % 0 % 1016,5 hPa 0,0 l/m 0,0 km/h (0 Bft) O 90 0 min 0,0 UV-I 19,4 C 21,7 C 0,0 km/h (0 Bft)
18.06.2013 23:40 21,6 C 26,9 C 21,8 C 21,6 C 21,6 C 0,0 C 87 % 81 % 0 % 1016,5 hPa 0,0 l/m 0,0 km/h (0 Bft) O-NO 67 0 min 0,0 UV-I 19,3 C 21,6 C 0,0 km/h (0 Bft)
18.06.2013 23:45 21,5 C 26,9 C 21,7 C 21,5 C 21,5 C 0,0 C 87 % 81 % 0 % 1016,5 hPa 0,0 l/m 0,0 km/h (0 Bft) NO 45 0 min 0,0 UV-I 19,2 C 21,5 C 0,0 km/h (0 Bft)
18.06.2013 23:50 21,4 C 26,9 C 21,7 C 21,4 C 21,4 C 0,0 C 87 % 81 % 0 % 1016,5 hPa 0,0 l/m 0,0 km/h (0 Bft) O-NO 67 0 min 0,0 UV-I 19,1 C 21,4 C 0,0 km/h (0 Bft)
18.06.2013 23:55 21,3 C 26,9 C 21,6 C 21,3 C 21,3 C 0,0 C 87 % 81 % 0 % 1016,2 hPa 0,0 l/m 0,0 km/h (0 Bft) NW 315 0 min 0,0 UV-I 19,0 C 21,3 C 0,0 km/h (0 Bft)
_ Min-Zeit 05:00 08:30 05:05 05:00 05:00 00:00 14:55 16:55 00:00 01:35 - 00:00 - - - 00:00 05:00 05:00 00:00
Minimum _ 14,8 C 24,2 C 16,0 C 15,1 C 15,1 C 0,0 C 56 % 71 % 0 % 1012,4 hPa - 0,0 km/h (0 Bft) - - - 0,0 UV-I 13,0 C 15,1 C 0,0 km/h (0 Bft)
_ Max-Zeit 15:15 21:40 16:25 15:55 15:55 08:40 07:35 04:10 07:05 23:35 00:00 11:55 - - 07:00 06:00 14:50 15:55 12:00
Maximum _ 33,2 C 27,1 C 28,4 C 36,3 C 36,3 C 9,9 C 93 % 83 % 100 % 1016,5 hPa 0,0 l/m 5,8 km/h
S (2 Bft)
- - 19 min 0,3 UV-I 23,3 C 36,3 C 10,9 km/h
W-SW (2 Bft)
Durchschnitt _ 23,8 C 25,4 C 22,4 C 26,5 C 26,4 C 2,7 C 77 % 78 % 49 % 1014,3 hPa #0,0 l/m 1,1 km/h (1 Bft) SW - #10:24 h 0,2 UV-I 19,1 C 26,4 C 1,6 km/h (1 Bft)
2013 www.wetterstation-wechselburg.de